^^
Saratoga-Weather Station Historical Data
Daily Summary for May 26, 2021 Units:  Both    English   Metric
Daily Weekly Monthly Yearly Custom
  High: Low: Average:
Temperature: 33.8 °F /  1 °C 31.6 °F /  -0.2 °C 32.9 °F /  0.5 °C
Dew Point: 31.3 °F /  -0.4 °C 29.7 °F /  -1.3 °C 30.6 °F /  -0.8 °C
Humidity: 92% 90% 91%
Wind Speed: 12.1mph /  19.5km/h - 5.3mph /  8.5km/h
Wind Gust: 17mph /  27.4km/h - -
Wind- - West
Pressure: 30.1 in /  1019.6 hPa 30 in /  1014.9 hPa -
Precipitation: 0 in /  0.0 mm    
Historical Graphs
 
 
Tabular Data for May 26, 2021
Time Temperature Dew Point Pressure Wind Wind Speed Wind Gust Humidity Rainfall Rate (Hourly) solar
00:03 32 °F /  0 °C 30 °F /  -1.1 °C 30in /  1014.9hPa West 4mph /  6.4km/h 8mph /  12.9km/h 92% 0in /  0.0mm 0 W/m2
00:08 32.2 °F /  0.1 °C 30.2 °F /  -1 °C 30in /  1014.9hPa West 6mph /  9.7km/h 9mph /  14.5km/h 92% 0in /  0.0mm 0 W/m2
00:13 32.4 °F /  0.2 °C 30.4 °F /  -0.9 °C 30in /  1014.9hPa WNW 4.9mph /  7.9km/h 9mph /  14.5km/h 92% 0in /  0.0mm 0 W/m2
00:18 32.4 °F /  0.2 °C 30.4 °F /  -0.9 °C 30in /  1014.9hPa WSW 2.9mph /  4.7km/h 9mph /  14.5km/h 92% 0in /  0.0mm 0 W/m2
00:23 32.4 °F /  0.2 °C 30.4 °F /  -0.9 °C 30in /  1015.2hPa WSW 2mph /  3.2km/h 10mph /  16.1km/h 92% 0in /  0.0mm 0 W/m2
00:28 32.4 °F /  0.2 °C 30.4 °F /  -0.9 °C 30in /  1014.9hPa West 2mph /  3.2km/h 4mph /  6.4km/h 92% 0in /  0.0mm 0 W/m2
00:33 32.4 °F /  0.2 °C 30 °F /  -1.1 °C 30in /  1015.2hPa WSW 0.9mph /  1.4km/h 4mph /  6.4km/h 91% 0in /  0.0mm 0 W/m2
00:38 32.4 °F /  0.2 °C 30 °F /  -1.1 °C 30in /  1015.2hPa WNW 2.9mph /  4.7km/h 6mph /  9.7km/h 91% 0in /  0.0mm 0 W/m2
00:43 32.2 °F /  0.1 °C 29.8 °F /  -1.2 °C 30in /  1015.2hPa WSW 2.9mph /  4.7km/h 8mph /  12.9km/h 91% 0in /  0.0mm 0 W/m2
00:48 32.4 °F /  0.2 °C 30.4 °F /  -0.9 °C 30in /  1015.2hPa WSW 0.9mph /  1.4km/h 7mph /  11.3km/h 92% 0in /  0.0mm 0 W/m2
00:53 32.4 °F /  0.2 °C 30.4 °F /  -0.9 °C 30in /  1015.2hPa SW 0.9mph /  1.4km/h 7mph /  11.3km/h 92% 0in /  0.0mm 0 W/m2
00:58 32.4 °F /  0.2 °C 30 °F /  -1.1 °C 30in /  1015.2hPa WNW 4mph /  6.4km/h 6mph /  9.7km/h 91% 0in /  0.0mm 0 W/m2
01:03 32.5 °F /  0.3 °C 30.6 °F /  -0.8 °C 30in /  1015.2hPa West 0.9mph /  1.4km/h 10mph /  16.1km/h 92% 0in /  0.0mm 0 W/m2
01:08 32.5 °F /  0.3 °C 30.6 °F /  -0.8 °C 30in /  1015.2hPa SW 4mph /  6.4km/h 8mph /  12.9km/h 92% 0in /  0.0mm 0 W/m2
01:13 32.7 °F /  0.4 °C 30.4 °F /  -0.9 °C 30in /  1015.2hPa WSW 4mph /  6.4km/h 10mph /  16.1km/h 91% 0in /  0.0mm 0 W/m2
01:18 32.9 °F /  0.5 °C 30.6 °F /  -0.8 °C 30in /  1015.2hPa North 2mph /  3.2km/h 2mph /  3.2km/h 91% 0in /  0.0mm 0 W/m2
01:23 33.1 °F /  0.6 °C 30.7 °F /  -0.7 °C 30in /  1015.2hPa WNW 4mph /  6.4km/h 9mph /  14.5km/h 91% 0in /  0.0mm 0 W/m2
01:28 33.1 °F /  0.6 °C 30.7 °F /  -0.7 °C 30in /  1015.2hPa WSW 2.9mph /  4.7km/h 8mph /  12.9km/h 91% 0in /  0.0mm 0 W/m2
01:33 33.1 °F /  0.6 °C 30.7 °F /  -0.7 °C 30in /  1015.2hPa WSW 2.9mph /  4.7km/h 9mph /  14.5km/h 91% 0in /  0.0mm 0 W/m2
01:38 33.3 °F /  0.7 °C 30.9 °F /  -0.6 °C 30in /  1015.2hPa West 2.9mph /  4.7km/h 6mph /  9.7km/h 91% 0in /  0.0mm 0 W/m2
01:43 33.3 °F /  0.7 °C 30.9 °F /  -0.6 °C 30in /  1015.2hPa West 4mph /  6.4km/h 10mph /  16.1km/h 91% 0in /  0.0mm 0 W/m2
01:48 33.3 °F /  0.7 °C 30.9 °F /  -0.6 °C 30in /  1015.2hPa WSW 0.9mph /  1.4km/h 8mph /  12.9km/h 91% 0in /  0.0mm 0 W/m2
01:53 33.3 °F /  0.7 °C 30.9 °F /  -0.6 °C 30in /  1015.2hPa NW 2.9mph /  4.7km/h 13mph /  20.9km/h 91% 0in /  0.0mm 0 W/m2
01:58 33.3 °F /  0.7 °C 30.9 °F /  -0.6 °C 30in /  1015.2hPa South 4mph /  6.4km/h 10mph /  16.1km/h 91% 0in /  0.0mm 0 W/m2
02:03 33.3 °F /  0.7 °C 30.9 °F /  -0.6 °C 30in /  1015.2hPa WSW 4mph /  6.4km/h 13mph /  20.9km/h 91% 0in /  0.0mm 0 W/m2
02:08 33.3 °F /  0.7 °C 30.9 °F /  -0.6 °C 30in /  1015.2hPa West 4mph /  6.4km/h 11mph /  17.7km/h 91% 0in /  0.0mm 0 W/m2
02:13 33.3 °F /  0.7 °C 30.9 °F /  -0.6 °C 30in /  1015.6hPa West 8.9mph /  14.3km/h 10mph /  16.1km/h 91% 0in /  0.0mm 0 W/m2
02:18 33.4 °F /  0.8 °C 31.1 °F /  -0.5 °C 30in /  1015.6hPa West 2.9mph /  4.7km/h 7mph /  11.3km/h 91% 0in /  0.0mm 0 W/m2
02:23 33.3 °F /  0.7 °C 30.9 °F /  -0.6 °C 30in /  1015.6hPa WSW 0.9mph /  1.4km/h 7mph /  11.3km/h 91% 0in /  0.0mm 0 W/m2
02:28 33.3 °F /  0.7 °C 30.9 °F /  -0.6 °C 30in /  1015.6hPa WSW 4mph /  6.4km/h 11mph /  17.7km/h 91% 0in /  0.0mm 0 W/m2
02:33 33.3 °F /  0.7 °C 30.9 °F /  -0.6 °C 30in /  1015.6hPa NW 2mph /  3.2km/h 8mph /  12.9km/h 91% 0in /  0.0mm 0 W/m2
02:38 33.3 °F /  0.7 °C 30.9 °F /  -0.6 °C 30in /  1015.6hPa WSW 4mph /  6.4km/h 11mph /  17.7km/h 91% 0in /  0.0mm 0 W/m2
02:43 33.3 °F /  0.7 °C 30.9 °F /  -0.6 °C 30in /  1015.6hPa WSW 2.9mph /  4.7km/h 12mph /  19.3km/h 91% 0in /  0.0mm 0 W/m2
02:48 33.3 °F /  0.7 °C 30.6 °F /  -0.8 °C 30in /  1015.9hPa North 0.9mph /  1.4km/h 9mph /  14.5km/h 90% 0in /  0.0mm 0 W/m2
02:53 33.3 °F /  0.7 °C 30.9 °F /  -0.6 °C 30in /  1015.9hPa WNW 2.9mph /  4.7km/h 6mph /  9.7km/h 91% 0in /  0.0mm 0 W/m2
02:58 33.3 °F /  0.7 °C 30.6 °F /  -0.8 °C 30in /  1016.3hPa WNW 8.1mph /  13km/h 9mph /  14.5km/h 90% 0in /  0.0mm 0 W/m2
03:03 33.4 °F /  0.8 °C 30.7 °F /  -0.7 °C 30in /  1015.9hPa WNW 4mph /  6.4km/h 6mph /  9.7km/h 90% 0in /  0.0mm 0 W/m2
03:08 33.4 °F /  0.8 °C 30.7 °F /  -0.7 °C 30in /  1016.3hPa WSW 6mph /  9.7km/h 8mph /  12.9km/h 90% 0in /  0.0mm 0 W/m2
03:13 33.4 °F /  0.8 °C 30.7 °F /  -0.7 °C 30in /  1016.3hPa WSW 4mph /  6.4km/h 11mph /  17.7km/h 90% 0in /  0.0mm 0 W/m2
03:18 33.6 °F /  0.9 °C 30.9 °F /  -0.6 °C 30in /  1016.3hPa West 2mph /  3.2km/h 7mph /  11.3km/h 90% 0in /  0.0mm 0 W/m2
03:23 33.6 °F /  0.9 °C 30.9 °F /  -0.6 °C 30in /  1016.3hPa WSW 4.9mph /  7.9km/h 10mph /  16.1km/h 90% 0in /  0.0mm 0 W/m2
03:28 33.6 °F /  0.9 °C 30.9 °F /  -0.6 °C 30in /  1015.9hPa West 4mph /  6.4km/h 5mph /  8km/h 90% 0in /  0.0mm 0 W/m2
03:33 33.6 °F /  0.9 °C 30.9 °F /  -0.6 °C 30in /  1015.9hPa WSW 4mph /  6.4km/h 10mph /  16.1km/h 90% 0in /  0.0mm 0 W/m2
03:38 33.8 °F /  1 °C 31.1 °F /  -0.5 °C 30in /  1016.3hPa WNW 4mph /  6.4km/h 7mph /  11.3km/h 90% 0in /  0.0mm 0 W/m2
03:43 33.8 °F /  1 °C 31.1 °F /  -0.5 °C 30in /  1016.3hPa WSW 2.9mph /  4.7km/h 8mph /  12.9km/h 90% 0in /  0.0mm 0 W/m2
03:48 33.8 °F /  1 °C 31.1 °F /  -0.5 °C 30in /  1016.3hPa West 6.9mph /  11.1km/h 7mph /  11.3km/h 90% 0in /  0.0mm 0 W/m2
03:53 33.8 °F /  1 °C 31.1 °F /  -0.5 °C 30in /  1016.3hPa West 6mph /  9.7km/h 10mph /  16.1km/h 90% 0in /  0.0mm 0 W/m2
03:58 33.8 °F /  1 °C 31.1 °F /  -0.5 °C 30in /  1016.3hPa West 6.9mph /  11.1km/h 9mph /  14.5km/h 90% 0in /  0.0mm 0 W/m2
04:03 33.6 °F /  0.9 °C 31.3 °F /  -0.4 °C 30in /  1016.3hPa WSW 2.9mph /  4.7km/h 9mph /  14.5km/h 91% 0in /  0.0mm 0 W/m2
04:08 33.6 °F /  0.9 °C 31.3 °F /  -0.4 °C 30in /  1016.3hPa West 4mph /  6.4km/h 9mph /  14.5km/h 91% 0in /  0.0mm 0 W/m2
04:13 33.6 °F /  0.9 °C 31.3 °F /  -0.4 °C 30in /  1016.3hPa WNW 6.9mph /  11.1km/h 10mph /  16.1km/h 91% 0in /  0.0mm 0 W/m2
04:18 33.6 °F /  0.9 °C 31.3 °F /  -0.4 °C 30in /  1016.3hPa WNW 8.9mph /  14.3km/h 10mph /  16.1km/h 91% 0in /  0.0mm 0 W/m2
04:23 33.6 °F /  0.9 °C 31.3 °F /  -0.4 °C 30in /  1016.3hPa WSW 2.9mph /  4.7km/h 9mph /  14.5km/h 91% 0in /  0.0mm 0 W/m2
04:28 33.4 °F /  0.8 °C 31.1 °F /  -0.5 °C 30in /  1016.6hPa West 10.1mph /  16.3km/h 13mph /  20.9km/h 91% 0in /  0.0mm 0 W/m2
04:33 33.4 °F /  0.8 °C 31.1 °F /  -0.5 °C 30in /  1016.6hPa West 8.1mph /  13km/h 11mph /  17.7km/h 91% 0in /  0.0mm 0 W/m2
04:38 33.4 °F /  0.8 °C 31.1 °F /  -0.5 °C 30in /  1016.6hPa West 2mph /  3.2km/h 13mph /  20.9km/h 91% 0in /  0.0mm 0 W/m2
04:43 33.4 °F /  0.8 °C 31.1 °F /  -0.5 °C 30in /  1016.6hPa West 8.9mph /  14.3km/h 9mph /  14.5km/h 91% 0in /  0.0mm 0 W/m2
04:48 33.4 °F /  0.8 °C 31.1 °F /  -0.5 °C 30in /  1016.6hPa South 4mph /  6.4km/h 11mph /  17.7km/h 91% 0in /  0.0mm 0 W/m2
04:53 33.3 °F /  0.7 °C 30.9 °F /  -0.6 °C 30in /  1016.6hPa WSW 4.9mph /  7.9km/h 9mph /  14.5km/h 91% 0in /  0.0mm 0 W/m2
04:58 33.3 °F /  0.7 °C 30.9 °F /  -0.6 °C 30in /  1016.9hPa WSW 8.1mph /  13km/h 13mph /  20.9km/h 91% 0in /  0.0mm 0 W/m2
05:03 33.3 °F /  0.7 °C 30.9 °F /  -0.6 °C 30in /  1016.9hPa West 6mph /  9.7km/h 7mph /  11.3km/h 91% 0in /  0.0mm 0 W/m2
05:08 33.3 °F /  0.7 °C 30.9 °F /  -0.6 °C 30in /  1016.9hPa West 6.9mph /  11.1km/h 8mph /  12.9km/h 91% 0in /  0.0mm 0 W/m2
05:13 33.3 °F /  0.7 °C 30.9 °F /  -0.6 °C 30in /  1016.9hPa West 6mph /  9.7km/h 10mph /  16.1km/h 91% 0in /  0.0mm 0 W/m2
05:18 33.4 °F /  0.8 °C 31.1 °F /  -0.5 °C 30in /  1016.9hPa West 0.9mph /  1.4km/h 10mph /  16.1km/h 91% 0in /  0.0mm 0 W/m2
05:23 33.4 °F /  0.8 °C 31.1 °F /  -0.5 °C 30in /  1016.9hPa West 4mph /  6.4km/h 11mph /  17.7km/h 91% 0in /  0.0mm 0 W/m2
05:28 33.4 °F /  0.8 °C 31.1 °F /  -0.5 °C 30in /  1017.3hPa WSW 10.1mph /  16.3km/h 11mph /  17.7km/h 91% 0in /  0.0mm 0 W/m2
05:33 33.4 °F /  0.8 °C 31.1 °F /  -0.5 °C 30in /  1017.3hPa WSW 4.9mph /  7.9km/h 8mph /  12.9km/h 91% 0in /  0.0mm 0 W/m2
05:38 33.6 °F /  0.9 °C 31.3 °F /  -0.4 °C 30in /  1017.3hPa West 6mph /  9.7km/h 11mph /  17.7km/h 91% 0in /  0.0mm 0 W/m2
05:43 33.6 °F /  0.9 °C 30.9 °F /  -0.6 °C 30.1in /  1017.6hPa West 8.1mph /  13km/h 12mph /  19.3km/h 90% 0in /  0.0mm 0 W/m2
05:48 33.4 °F /  0.8 °C 30.7 °F /  -0.7 °C 30.1in /  1017.6hPa WSW 4.9mph /  7.9km/h 17mph /  27.4km/h 90% 0in /  0.0mm 0 W/m2
05:53 33.4 °F /  0.8 °C 30.7 °F /  -0.7 °C 30in /  1017.3hPa WSW 11mph /  17.7km/h 11mph /  17.7km/h 90% 0in /  0.0mm 0 W/m2
05:58 33.3 °F /  0.7 °C 30.6 °F /  -0.8 °C 30in /  1017.3hPa WNW 4.9mph /  7.9km/h 17mph /  27.4km/h 90% 0in /  0.0mm 0 W/m2
06:03 33.3 °F /  0.7 °C 30.9 °F /  -0.6 °C 30in /  1017.3hPa West 12.1mph /  19.5km/h 16mph /  25.7km/h 91% 0in /  0.0mm 0 W/m2
06:08 33.1 °F /  0.6 °C 30.7 °F /  -0.7 °C 30in /  1017.3hPa WSW 2mph /  3.2km/h 10mph /  16.1km/h 91% 0in /  0.0mm 0 W/m2
06:13 33.1 °F /  0.6 °C 30.7 °F /  -0.7 °C 30in /  1017.3hPa West 6.9mph /  11.1km/h 16mph /  25.7km/h 91% 0in /  0.0mm 0 W/m2
06:18 33.1 °F /  0.6 °C 30.7 °F /  -0.7 °C 30in /  1017.3hPa WNW 8.1mph /  13km/h 14mph /  22.5km/h 91% 0in /  0.0mm 0 W/m2
06:23 33.1 °F /  0.6 °C 30.7 °F /  -0.7 °C 30.1in /  1017.6hPa West 8.9mph /  14.3km/h 12mph /  19.3km/h 91% 0in /  0.0mm 0 W/m2
06:28 33.1 °F /  0.6 °C 30.7 °F /  -0.7 °C 30.1in /  1017.6hPa WSW 4.9mph /  7.9km/h 13mph /  20.9km/h 91% 0in /  0.0mm 0 W/m2
06:33 33.1 °F /  0.6 °C 30.7 °F /  -0.7 °C 30.1in /  1017.6hPa WNW 11mph /  17.7km/h 11mph /  17.7km/h 91% 0in /  0.0mm 0 W/m2
06:38 32.9 °F /  0.5 °C 30.6 °F /  -0.8 °C 30.1in /  1017.6hPa WSW 8.1mph /  13km/h 16mph /  25.7km/h 91% 0in /  0.0mm 0 W/m2
06:43 32.9 °F /  0.5 °C 30.6 °F /  -0.8 °C 30.1in /  1017.6hPa West 6.9mph /  11.1km/h 13mph /  20.9km/h 91% 0in /  0.0mm 0 W/m2
06:48 32.7 °F /  0.4 °C 30.4 °F /  -0.9 °C 30.1in /  1017.6hPa WNW 10.1mph /  16.3km/h 16mph /  25.7km/h 91% 0in /  0.0mm 0 W/m2
06:53 32.7 °F /  0.4 °C 30.4 °F /  -0.9 °C 30.1in /  1018.0hPa West 6mph /  9.7km/h 13mph /  20.9km/h 91% 0in /  0.0mm 0 W/m2
06:59 32.7 °F /  0.4 °C 30.4 °F /  -0.9 °C 30.1in /  1017.6hPa NW 8.1mph /  13km/h 10mph /  16.1km/h 91% 0in /  0.0mm 0 W/m2
07:04 32.5 °F /  0.3 °C 30.2 °F /  -1 °C 30.1in /  1018.0hPa WSW 4.9mph /  7.9km/h 9mph /  14.5km/h 91% 0in /  0.0mm 0 W/m2
07:09 32.5 °F /  0.3 °C 30.2 °F /  -1 °C 30.1in /  1018.0hPa West 6mph /  9.7km/h 11mph /  17.7km/h 91% 0in /  0.0mm 0 W/m2
07:14 32.5 °F /  0.3 °C 30.2 °F /  -1 °C 30.1in /  1018.0hPa WNW 8.1mph /  13km/h 16mph /  25.7km/h 91% 0in /  0.0mm 0 W/m2
07:19 32.4 °F /  0.2 °C 30 °F /  -1.1 °C 30.1in /  1018.0hPa WSW 4mph /  6.4km/h 14mph /  22.5km/h 91% 0in /  0.0mm 0 W/m2
07:24 32.4 °F /  0.2 °C 30.4 °F /  -0.9 °C 30.1in /  1018.0hPa WNW 8.1mph /  13km/h 16mph /  25.7km/h 92% 0in /  0.0mm 0 W/m2
07:29 32.4 °F /  0.2 °C 30 °F /  -1.1 °C 30.1in /  1018.0hPa West 6.9mph /  11.1km/h 11mph /  17.7km/h 91% 0in /  0.0mm 0 W/m2
07:34 32.4 °F /  0.2 °C 30 °F /  -1.1 °C 30.1in /  1018.0hPa West 6mph /  9.7km/h 15mph /  24.1km/h 91% 0in /  0.0mm 0 W/m2
07:39 32.2 °F /  0.1 °C 30.2 °F /  -1 °C 30.1in /  1018.3hPa West 6mph /  9.7km/h 9mph /  14.5km/h 92% 0in /  0.0mm 0 W/m2
07:44 32.2 °F /  0.1 °C 30.2 °F /  -1 °C 30.1in /  1018.3hPa West 8.9mph /  14.3km/h 15mph /  24.1km/h 92% 0in /  0.0mm 0 W/m2
07:49 32.2 °F /  0.1 °C 30.2 °F /  -1 °C 30.1in /  1018.3hPa NW 4mph /  6.4km/h 6mph /  9.7km/h 92% 0in /  0.0mm 0 W/m2
07:54 32.2 °F /  0.1 °C 30.2 °F /  -1 °C 30.1in /  1018.3hPa West 4mph /  6.4km/h 15mph /  24.1km/h 92% 0in /  0.0mm 0 W/m2
07:59 32.2 °F /  0.1 °C 30.2 °F /  -1 °C 30.1in /  1018.3hPa WSW 6mph /  9.7km/h 12mph /  19.3km/h 92% 0in /  0.0mm 0 W/m2
08:04 32 °F /  0 °C 30 °F /  -1.1 °C 30.1in /  1018.6hPa West 8.1mph /  13km/h 12mph /  19.3km/h 92% 0in /  0.0mm 0 W/m2
08:09 32 °F /  0 °C 30 °F /  -1.1 °C 30.1in /  1018.3hPa WNW 11mph /  17.7km/h 11mph /  17.7km/h 92% 0in /  0.0mm 0 W/m2
08:14 31.8 °F /  -0.1 °C 29.8 °F /  -1.2 °C 30.1in /  1018.3hPa West 8.9mph /  14.3km/h 14mph /  22.5km/h 92% 0in /  0.0mm 7 W/m2
08:19 31.8 °F /  -0.1 °C 29.8 °F /  -1.2 °C 30.1in /  1018.6hPa West 8.1mph /  13km/h 11mph /  17.7km/h 92% 0in /  0.0mm 9 W/m2
08:24 31.8 °F /  -0.1 °C 29.8 °F /  -1.2 °C 30.1in /  1018.6hPa WNW 4mph /  6.4km/h 12mph /  19.3km/h 92% 0in /  0.0mm 12 W/m2
08:29 31.8 °F /  -0.1 °C 29.8 °F /  -1.2 °C 30.1in /  1018.6hPa WSW 2.9mph /  4.7km/h 9mph /  14.5km/h 92% 0in /  0.0mm 16 W/m2
08:34 31.8 °F /  -0.1 °C 29.8 °F /  -1.2 °C 30.1in /  1018.6hPa WNW 6.9mph /  11.1km/h 12mph /  19.3km/h 92% 0in /  0.0mm 21 W/m2
08:39 31.6 °F /  -0.2 °C 29.7 °F /  -1.3 °C 30.1in /  1018.6hPa West 2.9mph /  4.7km/h 10mph /  16.1km/h 92% 0in /  0.0mm 25 W/m2
08:44 31.8 °F /  -0.1 °C 29.8 °F /  -1.2 °C 30.1in /  1019.0hPa WSW 10.1mph /  16.3km/h 11mph /  17.7km/h 92% 0in /  0.0mm 30 W/m2
08:49 31.8 °F /  -0.1 °C 29.8 °F /  -1.2 °C 30.1in /  1019.0hPa WNW 2.9mph /  4.7km/h 10mph /  16.1km/h 92% 0in /  0.0mm 35 W/m2
08:54 31.8 °F /  -0.1 °C 29.8 °F /  -1.2 °C 30.1in /  1019.0hPa WNW 6mph /  9.7km/h 11mph /  17.7km/h 92% 0in /  0.0mm 46 W/m2
08:59 31.8 °F /  -0.1 °C 29.8 °F /  -1.2 °C 30.1in /  1019.0hPa NNW 4.9mph /  7.9km/h 11mph /  17.7km/h 92% 0in /  0.0mm 53 W/m2
09:04 32 °F /  0 °C 30 °F /  -1.1 °C 30.1in /  1019.0hPa NW 11mph /  17.7km/h 12mph /  19.3km/h 92% 0in /  0.0mm 58 W/m2
09:09 32 °F /  0 °C 30 °F /  -1.1 °C 30.1in /  1019.0hPa WNW 4mph /  6.4km/h 11mph /  17.7km/h 92% 0in /  0.0mm 62 W/m2
09:14 32.2 °F /  0.1 °C 30.2 °F /  -1 °C 30.1in /  1019.0hPa WNW 4mph /  6.4km/h 9mph /  14.5km/h 92% 0in /  0.0mm 65 W/m2
09:19 32.2 °F /  0.1 °C 30.2 °F /  -1 °C 30.1in /  1019.0hPa WNW 2mph /  3.2km/h 10mph /  16.1km/h 92% 0in /  0.0mm 67 W/m2
09:24 32.4 °F /  0.2 °C 30 °F /  -1.1 °C 30.1in /  1019.3hPa West 4mph /  6.4km/h 10mph /  16.1km/h 91% 0in /  0.0mm 74 W/m2
09:29 32.4 °F /  0.2 °C 30 °F /  -1.1 °C 30.1in /  1019.3hPa SW 4mph /  6.4km/h 12mph /  19.3km/h 91% 0in /  0.0mm 81 W/m2
09:34 32.4 °F /  0.2 °C 30.4 °F /  -0.9 °C 30.1in /  1019.3hPa West 6.9mph /  11.1km/h 11mph /  17.7km/h 92% 0in /  0.0mm 84 W/m2
09:39 32.4 °F /  0.2 °C 30 °F /  -1.1 °C 30.1in /  1019.3hPa West 8.1mph /  13km/h 13mph /  20.9km/h 91% 0in /  0.0mm 79 W/m2
09:44 32.5 °F /  0.3 °C 30.2 °F /  -1 °C 30.1in /  1019.3hPa WNW 8.1mph /  13km/h 12mph /  19.3km/h 91% 0in /  0.0mm 76 W/m2
09:49 32.5 °F /  0.3 °C 30.2 °F /  -1 °C 30.1in /  1019.3hPa SSW 10.1mph /  16.3km/h 14mph /  22.5km/h 91% 0in /  0.0mm 79 W/m2
09:54 32.5 °F /  0.3 °C 30.2 °F /  -1 °C 30.1in /  1019.6hPa WNW 6.9mph /  11.1km/h 15mph /  24.1km/h 91% 0in /  0.0mm 81 W/m2
09:59 32.5 °F /  0.3 °C 30.2 °F /  -1 °C 30.1in /  1019.6hPa West 4mph /  6.4km/h 10mph /  16.1km/h 91% 0in /  0.0mm 86 W/m2
10:04 32.5 °F /  0.3 °C 30.2 °F /  -1 °C 30.1in /  1019.6hPa West 6mph /  9.7km/h 13mph /  20.9km/h 91% 0in /  0.0mm 95 W/m2
10:09 32.7 °F /  0.4 °C 30.4 °F /  -0.9 °C 30.1in /  1019.3hPa West 4mph /  6.4km/h 10mph /  16.1km/h 91% 0in /  0.0mm 95 W/m2
10:14 32.7 °F /  0.4 °C 30.4 °F /  -0.9 °C 30.1in /  1019.6hPa WNW 10.1mph /  16.3km/h 10mph /  16.1km/h 91% 0in /  0.0mm 120 W/m2
10:19 32.9 °F /  0.5 °C 30.6 °F /  -0.8 °C 30.1in /  1019.6hPa WSW 4.9mph /  7.9km/h 13mph /  20.9km/h 91% 0in /  0.0mm 123 W/m2
10:24 33.1 °F /  0.6 °C 30.7 °F /  -0.7 °C 30.1in /  1019.3hPa West 6.9mph /  11.1km/h 12mph /  19.3km/h 91% 0in /  0.0mm 130 W/m2
Juneau County Weather
Compliments of Weather Underground - 2 mb